Time;durP1;ratioP1;P1;durP2;ratioP2;P2;SDS_P1;SDS_P2;PMS_P1;PMS_P2;Temp;Humidity;BMP_temperature;BMP_pressure;BME280_temperature;BME280_humidity;BME280_pressure;Samples;Min_cycle;Max_cycle;Signal;HPM_P1;HPM_P2
2021/06/28 00:02:32;;;;;;;5.00;4.80;;;;;;;21.35;78.28;101434.34;6315025;28;20184;-75
2021/06/28 00:05:38;;;;;;;5.78;5.20;;;;;;;21.36;77.90;101428.56;6313830;28;20230;-75
2021/06/28 00:08:43;;;;;;;5.60;5.30;;;;;;;21.34;77.09;101427.16;6314934;28;20234;-75
2021/06/28 00:11:48;;;;;;;5.20;4.90;;;;;;;21.28;76.62;101450.44;6313539;28;20357;-75
2021/06/28 00:14:52;;;;;;;4.97;4.75;;;;;;;21.31;76.24;101449.91;6313332;28;20198;-75
2021/06/28 00:17:57;;;;;;;4.88;4.60;;;;;;;21.23;75.07;101437.41;6313434;28;20271;-75
2021/06/28 00:21:04;;;;;;;4.65;4.45;;;;;;;21.17;74.84;101444.88;6313581;28;20509;-76
2021/06/28 00:24:10;;;;;;;4.40;4.20;;;;;;;21.05;75.37;101452.56;6314142;28;20184;-75
2021/06/28 00:27:14;;;;;;;4.95;4.65;;;;;;;21.00;75.80;101455.31;6313194;28;20382;-75
2021/06/28 00:30:21;;;;;;;4.78;4.55;;;;;;;21.11;74.13;101451.50;6312948;28;20410;-75
2021/06/28 00:33:27;;;;;;;4.75;4.43;;;;;;;21.12;73.60;101453.19;6313929;28;20187;-75
2021/06/28 00:36:33;;;;;;;4.63;4.43;;;;;;;21.03;73.83;101443.66;6314322;28;20183;-76
2021/06/28 00:39:37;;;;;;;4.80;4.60;;;;;;;20.97;74.37;101447.53;6313732;28;20278;-75
2021/06/28 00:42:41;;;;;;;5.05;4.32;;;;;;;20.93;74.05;101449.16;6314057;28;20189;-75
2021/06/28 00:45:46;;;;;;;4.53;4.35;;;;;;;20.89;73.10;101442.50;6313933;28;20183;-75
2021/06/28 00:48:50;;;;;;;4.50;4.25;;;;;;;20.73;73.45;101454.63;6313479;28;20219;-75
2021/06/28 00:51:58;;;;;;;4.47;4.28;;;;;;;20.81;72.92;101454.13;6313750;28;20187;-75
2021/06/28 00:55:02;;;;;;;4.57;4.22;;;;;;;20.63;73.95;101442.63;6312418;28;20491;-75
2021/06/28 00:58:08;;;;;;;4.78;4.57;;;;;;;20.71;73.21;101442.13;6313443;28;20221;-76
2021/06/28 01:01:13;;;;;;;4.70;4.40;;;;;;;20.65;72.99;101448.78;6312315;28;20272;-75
2021/06/28 01:04:23;;;;;;;4.47;4.22;;;;;;;20.71;72.20;101451.28;6313600;28;20184;-75
2021/06/28 01:07:29;;;;;;;4.63;4.38;;;;;;;20.69;72.39;101453.50;6313543;28;20184;-75
2021/06/28 01:10:37;;;;;;;5.20;4.80;;;;;;;20.58;72.82;101451.78;6313148;28;20187;-75
2021/06/28 01:13:41;;;;;;;5.07;4.55;;;;;;;20.44;73.90;101445.06;6312025;28;20524;-75
2021/06/28 01:16:46;;;;;;;4.65;4.45;;;;;;;20.38;74.64;101451.66;6311616;28;20301;-75
2021/06/28 01:19:57;;;;;;;8.55;4.85;;;;;;;20.31;74.49;101456.59;6312786;28;20257;-76
2021/06/28 01:23:20;;;;;;;5.18;4.72;;;;;;;20.21;74.69;101442.63;6288095;28;20293;-75
2021/06/28 01:26:24;;;;;;;4.90;4.70;;;;;;;20.26;74.82;101459.34;6287913;28;20215;-76
2021/06/28 01:29:29;;;;;;;4.88;4.68;;;;;;;20.27;75.22;101449.91;6286818;28;20192;-75
2021/06/28 01:32:33;;;;;;;5.03;4.75;;;;;;;20.23;74.99;101440.44;6287655;28;20184;-76
2021/06/28 01:35:39;;;;;;;5.65;5.15;;;;;;;20.24;75.25;101450.44;6286641;28;20183;-76
2021/06/28 01:38:45;;;;;;;7.25;4.75;;;;;;;20.26;75.19;101434.41;6288023;28;20184;-75
2021/06/28 01:41:49;;;;;;;4.55;4.35;;;;;;;20.28;74.44;101457.13;6287598;28;20185;-75
2021/06/28 01:44:54;;;;;;;4.90;4.70;;;;;;;20.37;73.63;101444.44;6286418;28;20530;-76
2021/06/28 01:47:58;;;;;;;6.03;5.45;;;;;;;20.30;74.45;101443.84;6287560;28;20188;-75
2021/06/28 01:51:03;;;;;;;5.03;4.72;;;;;;;20.24;74.84;101447.66;6287805;28;20188;-75
2021/06/28 01:54:10;;;;;;;5.00;4.70;;;;;;;20.06;74.69;101442.50;6286338;28;20185;-75
2021/06/28 01:57:14;;;;;;;5.03;4.72;;;;;;;20.16;74.34;101448.16;6287831;28;20230;-75
2021/06/28 02:00:21;;;;;;;4.60;4.30;;;;;;;20.14;74.14;101451.16;6285934;28;20519;-76
2021/06/28 02:03:26;;;;;;;5.00;4.70;;;;;;;20.16;74.21;101448.97;6287559;28;20206;-76
2021/06/28 02:06:30;;;;;;;6.53;4.13;;;;;;;20.26;73.94;101448.25;6287502;28;20184;-75
2021/06/28 02:09:36;;;;;;;5.32;4.85;;;;;;;20.25;74.04;101441.03;6286476;28;20188;-75
2021/06/28 02:12:41;;;;;;;7.47;4.75;;;;;;;20.29;74.47;101442.16;6287508;28;20216;-75
2021/06/28 02:15:45;;;;;;;5.03;4.72;;;;;;;20.23;74.59;101449.63;6269418;28;20312;-75
2021/06/28 02:18:49;;;;;;;5.68;4.85;;;;;;;20.23;75.17;101445.97;6286499;28;20184;-76
2021/06/28 02:21:54;;;;;;;4.70;4.40;;;;;;;20.16;74.73;101448.16;6303106;28;20309;-75
2021/06/28 02:25:02;;;;;;;5.00;4.57;;;;;;;19.95;75.47;101442.41;6310887;28;20439;-75
2021/06/28 02:28:06;;;;;;;5.15;4.75;;;;;;;20.08;75.03;101435.59;6313315;28;20532;-76
2021/06/28 02:31:13;;;;;;;5.60;5.05;;;;;;;19.92;75.75;101442.97;6315903;28;20437;-76
2021/06/28 02:34:17;;;;;;;5.55;4.93;;;;;;;20.07;74.91;101439.47;6315796;28;20187;-75
2021/06/28 02:37:22;;;;;;;5.30;4.75;;;;;;;20.11;74.82;101445.34;6315837;28;20187;-75
2021/06/28 02:40:28;;;;;;;5.80;5.38;;;;;;;20.08;75.38;101443.09;6316904;28;20286;-75
2021/06/28 02:43:32;;;;;;;9.68;4.90;;;;;;;20.09;75.13;101439.19;6315818;28;20184;-75
2021/06/28 02:46:36;;;;;;;6.10;5.28;;;;;;;20.10;75.39;101444.50;6317115;28;20230;-75
2021/06/28 02:49:41;;;;;;;5.43;5.05;;;;;;;20.03;75.90;101448.59;6315276;28;20247;-75
2021/06/28 02:52:45;;;;;;;7.18;5.30;;;;;;;19.96;76.01;101449.63;6308903;28;20215;-75
2021/06/28 02:55:52;;;;;;;5.72;5.00;;;;;;;20.00;75.44;101439.69;6316640;28;20219;-75
2021/06/28 02:58:58;;;;;;;5.85;4.97;;;;;;;19.93;75.11;101430.78;6315208;28;20222;-75
2021/06/28 03:02:03;;;;;;;5.78;5.20;;;;;;;19.89;75.29;101429.66;6316070;28;20207;-76
2021/06/28 03:05:10;;;;;;;7.10;5.35;;;;;;;20.02;74.94;101424.75;6315048;28;20500;-76
2021/06/28 03:08:15;;;;;;;8.35;5.55;;;;;;;19.95;75.30;101431.34;6315989;28;20226;-76
2021/06/28 03:11:22;;;;;;;6.28;5.00;;;;;;;19.96;74.65;101437.72;6315971;28;20192;-76
2021/06/28 03:14:26;;;;;;;6.68;5.72;;;;;;;19.95;75.03;101431.34;6315894;28;20183;-76
2021/06/28 03:17:30;;;;;;;6.38;4.97;;;;;;;19.81;75.51;101434.81;6297643;28;20203;-75
2021/06/28 03:20:35;;;;;;;7.00;4.95;;;;;;;19.96;74.97;101444.09;6315051;28;20217;-76
2021/06/28 03:23:40;;;;;;;5.53;5.05;;;;;;;19.89;75.48;101429.66;6315993;28;20190;-75
2021/06/28 03:26:45;;;;;;;5.75;5.30;;;;;;;19.94;74.95;101440.78;6314478;28;20412;-76
2021/06/28 03:29:50;;;;;;;5.97;5.47;;;;;;;20.00;75.08;101442.47;6315874;28;20251;-75
2021/06/28 03:32:56;;;;;;;5.57;5.07;;;;;;;19.96;75.25;101433.03;6315772;28;20183;-75
2021/06/28 03:36:01;;;;;;;6.30;5.32;;;;;;;19.97;75.55;101431.09;6314611;28;20190;-75
2021/06/28 03:39:08;;;;;;;5.25;4.85;;;;;;;19.84;75.87;101429.59;6315471;28;20247;-75
2021/06/28 03:42:13;;;;;;;7.05;5.35;;;;;;;19.95;75.28;101431.34;6314474;28;20453;-75
2021/06/28 03:45:18;;;;;;;6.63;4.88;;;;;;;20.01;75.06;101440.53;6315107;28;20246;-75
2021/06/28 03:48:22;;;;;;;5.70;4.80;;;;;;;19.94;75.15;101429.69;6314050;28;20246;-75
2021/06/28 03:51:26;;;;;;;6.97;5.38;;;;;;;19.90;75.31;101434.06;6315018;28;20188;-75
2021/06/28 03:54:31;;;;;;;6.85;5.28;;;;;;;19.99;75.50;101418.66;6315334;28;20215;-75
2021/06/28 03:57:37;;;;;;;6.15;5.15;;;;;;;19.92;75.76;101426.34;6314009;28;20394;-75
2021/06/28 04:00:41;;;;;;;6.43;5.70;;;;;;;19.96;75.72;101433.03;6313759;28;20212;-76
2021/06/28 04:03:45;;;;;;;5.88;5.47;;;;;;;20.07;75.14;101422.03;6314125;28;20183;-75
2021/06/28 04:06:49;;;;;;;5.80;5.43;;;;;;;20.06;75.80;101421.19;6315011;28;20222;-75
2021/06/28 04:09:53;;;;;;;6.43;5.50;;;;;;;19.96;75.77;101427.47;6314551;28;20188;-75
2021/06/28 04:12:59;;;;;;;6.32;5.70;;;;;;;20.05;75.81;101416.75;6313414;28;20210;-75
2021/06/28 04:16:04;;;;;;;6.18;5.60;;;;;;;20.05;75.80;101424.22;6314247;28;20266;-75
2021/06/28 04:19:08;;;;;;;5.88;5.47;;;;;;;20.00;76.25;101428.59;6313347;28;20526;-75
2021/06/28 04:22:13;;;;;;;6.63;5.75;;;;;;;19.97;76.38;101429.16;6313279;28;20551;-76
2021/06/28 04:25:19;;;;;;;8.73;5.38;;;;;;;20.04;76.05;101422.53;6313051;28;20425;-75
2021/06/28 04:28:37;;;;;;;8.93;5.90;;;;;;;20.19;75.50;101425.44;6313536;28;20183;-76
2021/06/28 04:31:41;;;;;;;6.00;5.45;;;;;;;20.08;76.69;101424.50;6312996;28;20455;-76
2021/06/28 04:34:46;;;;;;;6.20;5.60;;;;;;;20.08;75.84;101426.47;6306140;28;20183;-76
2021/06/28 04:37:51;;;;;;;6.97;5.60;;;;;;;20.16;76.29;101420.44;6312807;28;20475;-75
2021/06/28 04:40:55;;;;;;;7.45;5.63;;;;;;;20.20;76.23;101418.78;6313787;28;20271;-75
2021/06/28 04:44:01;;;;;;;8.38;6.18;;;;;;;20.25;76.17;101424.41;6313604;28;20188;-76
2021/06/28 04:47:05;;;;;;;6.15;5.50;;;;;;;20.25;75.86;101414.16;6313526;28;20184;-75
2021/06/28 04:50:14;;;;;;;5.30;4.97;;;;;;;20.31;75.82;101417.81;6313245;28;20191;-75
2021/06/28 04:53:18;;;;;;;6.07;5.57;;;;;;;20.27;74.54;101422.19;6312708;28;20259;-75
2021/06/28 04:56:22;;;;;;;7.57;5.40;;;;;;;20.33;73.26;101415.59;6312451;28;20222;-75
2021/06/28 04:59:28;;;;;;;6.07;5.32;;;;;;;20.17;72.97;101416.56;6312224;28;20441;-74
2021/06/28 05:02:32;;;;;;;6.05;5.55;;;;;;;20.30;72.91;101416.13;6312916;28;20257;-75
2021/06/28 05:05:36;;;;;;;6.38;5.05;;;;;;;20.27;73.00;101419.41;6312093;28;20497;-75
2021/06/28 05:08:40;;;;;;;5.68;5.13;;;;;;;20.46;72.25;101426.22;6312302;28;20215;-75
2021/06/28 05:11:46;;;;;;;9.18;5.60;;;;;;;20.41;72.62;101423.41;6313187;28;20195;-76
2021/06/28 05:14:51;;;;;;;6.15;5.32;;;;;;;20.49;73.60;101420.13;6311474;28;20454;-75
2021/06/28 05:17:55;;;;;;;5.82;5.22;;;;;;;20.50;72.50;101419.00;6313082;28;20255;-75
2021/06/28 05:20:59;;;;;;;6.28;5.32;;;;;;;20.70;71.36;101426.63;6307911;28;20236;-75
2021/06/28 05:24:04;;;;;;;5.68;5.10;;;;;;;21.21;70.01;101423.78;6288241;28;20262;-75
2021/06/28 05:27:08;;;;;;;6.70;5.30;;;;;;;21.90;68.85;101409.47;6287903;28;20215;-75
2021/06/28 05:30:15;;;;;;;5.97;5.43;;;;;;;22.24;66.05;101413.31;6286602;28;20413;-76
2021/06/28 05:33:19;;;;;;;7.07;5.13;;;;;;;22.52;65.28;101405.47;6287978;28;20188;-75
2021/06/28 05:36:25;;;;;;;5.38;4.90;;;;;;;22.66;64.28;101406.56;6287599;28;20267;-75
2021/06/28 05:39:31;;;;;;;5.30;4.88;;;;;;;22.88;63.62;101404.28;6287828;28;20251;-75
2021/06/28 05:42:35;;;;;;;5.03;4.53;;;;;;;22.96;63.64;101401.72;6287857;28;20212;-75
2021/06/28 05:45:41;;;;;;;5.97;5.35;;;;;;;22.92;63.01;101399.78;6287579;28;20191;-75
2021/06/28 05:48:45;;;;;;;7.65;4.55;;;;;;;22.87;61.52;101397.03;6287670;28;20184;-75
2021/06/28 05:51:49;;;;;;;4.75;4.35;;;;;;;22.81;60.89;101410.13;6287645;28;20192;-75
2021/06/28 05:54:53;;;;;;;6.10;4.60;;;;;;;22.90;60.14;101410.38;6286251;28;20517;-75
2021/06/28 05:57:57;;;;;;;4.85;4.45;;;;;;;22.83;60.26;101407.06;6286184;28;20184;-75
2021/06/28 06:01:03;;;;;;;5.15;4.50;;;;;;;22.69;60.52;101400.44;6287099;28;20227;-75
2021/06/28 06:04:13;;;;;;;4.72;4.43;;;;;;;22.65;60.75;101402.13;6286721;28;20215;-76
2021/06/28 06:07:18;;;;;;;6.72;4.25;;;;;;;22.54;60.31;101404.09;6286961;28;20251;-76
2021/06/28 06:10:22;;;;;;;4.78;4.25;;;;;;;22.60;60.63;101413.25;6287424;28;20188;-75
2021/06/28 06:13:27;;;;;;;5.18;4.57;;;;;;;22.67;60.86;101402.69;6286081;28;20364;-75
2021/06/28 06:16:33;;;;;;;8.23;4.45;;;;;;;22.76;61.69;101409.31;6286358;28;20200;-75
2021/06/28 06:19:37;;;;;;;4.80;4.40;;;;;;;22.85;61.24;101410.41;6286929;28;20247;-75
2021/06/28 06:22:44;;;;;;;6.18;4.57;;;;;;;22.88;60.86;101409.84;6305264;28;20235;-75
2021/06/28 06:25:48;;;;;;;5.18;4.68;;;;;;;22.99;61.49;101417.00;6311677;28;20285;-75
2021/06/28 06:28:52;;;;;;;4.38;4.25;;;;;;;23.01;60.25;101409.19;6310675;28;20445;-75
2021/06/28 06:31:58;;;;;;;5.10;4.43;;;;;;;23.07;59.58;101416.41;6312130;28;20222;-75
2021/06/28 06:35:02;;;;;;;4.63;4.32;;;;;;;22.83;58.82;101402.31;6311937;28;20226;-75
2021/06/28 06:38:07;;;;;;;4.88;4.30;;;;;;;22.95;59.60;101410.34;6311834;28;20222;-76
2021/06/28 06:41:11;;;;;;;5.25;4.68;;;;;;;22.71;58.93;101414.88;6311659;28;20252;-75
2021/06/28 06:44:16;;;;;;;5.07;4.57;;;;;;;22.84;60.62;101419.84;6310578;28;20409;-75
2021/06/28 06:47:22;;;;;;;5.05;4.70;;;;;;;22.92;60.09;101427.63;6311885;28;20267;-75
2021/06/28 06:50:28;;;;;;;5.13;4.60;;;;;;;23.08;60.54;101420.88;6311842;28;20183;-75
2021/06/28 06:53:32;;;;;;;4.53;4.13;;;;;;;23.30;57.92;101428.81;6310584;28;20534;-75
2021/06/28 06:56:39;;;;;;;4.30;4.03;;;;;;;23.30;58.04;101429.63;6310534;28;20184;-76
2021/06/28 06:59:44;;;;;;;5.07;4.18;;;;;;;23.31;57.94;101436.03;6302459;28;20184;-75
2021/06/28 07:02:50;;;;;;;5.28;4.22;;;;;;;23.34;56.78;101447.44;6311899;28;20275;-75
2021/06/28 07:05:54;;;;;;;5.43;4.88;;;;;;;23.05;60.27;101432.56;6310829;28;20184;-76
2021/06/28 07:08:58;;;;;;;8.75;5.18;;;;;;;23.34;59.93;101436.28;6311723;28;20234;-76
2021/06/28 07:12:02;;;;;;;5.53;5.13;;;;;;;23.18;60.09;101442.25;6311079;28;20184;-74
2021/06/28 07:15:08;;;;;;;5.35;4.95;;;;;;;23.33;59.93;101440.22;6314683;28;20266;-76
2021/06/28 07:18:14;;;;;;;5.97;5.40;;;;;;;23.38;60.82;101437.44;6314508;28;20459;-74
2021/06/28 07:21:19;;;;;;;8.70;5.25;;;;;;;23.34;61.09;101436.28;6315259;28;20235;-74
2021/06/28 07:24:23;;;;;;;5.50;4.95;;;;;;;23.38;60.47;101426.28;6280076;28;20226;-76
2021/06/28 07:27:28;;;;;;;7.78;5.88;;;;;;;23.21;60.46;101425.81;6314109;28;20540;-75
2021/06/28 07:30:32;;;;;;;5.22;5.00;;;;;;;23.22;61.17;101430.25;6315731;28;20188;-74
2021/06/28 07:33:41;;;;;;;5.60;5.20;;;;;;;23.36;60.51;101428.53;6314999;28;20194;-74
2021/06/28 07:36:45;;;;;;;7.00;6.40;;;;;;;23.52;60.14;101421.72;6315462;28;20183;-75
2021/06/28 07:39:49;;;;;;;4.90;4.60;;;;;;;23.66;59.66;101428.31;6314049;28;20218;-74
2021/06/28 07:42:56;;;;;;;4.40;4.20;;;;;;;23.56;58.56;101433.97;6314802;28;20207;-74
2021/06/28 07:46:01;;;;;;;5.35;4.90;;;;;;;23.54;59.03;101425.06;6315254;28;20184;-75
2021/06/28 07:49:07;;;;;;;5.30;4.90;;;;;;;23.51;58.32;101434.00;6314847;28;20183;-75
2021/06/28 07:52:11;;;;;;;4.80;4.50;;;;;;;23.67;58.94;101430.00;6315349;28;20187;-75
2021/06/28 07:55:16;;;;;;;6.00;5.00;;;;;;;23.65;58.54;101426.66;6314479;28;20241;-75
2021/06/28 07:58:20;;;;;;;5.68;4.60;;;;;;;23.74;58.11;101429.66;6313712;28;20479;-75
2021/06/28 08:01:24;;;;;;;6.55;4.65;;;;;;;23.66;57.95;101428.31;6313591;28;20184;-74
2021/06/28 08:04:30;;;;;;;5.93;4.43;;;;;;;23.65;56.86;101431.41;6314580;28;20239;-75
2021/06/28 08:07:34;;;;;;;6.65;4.40;;;;;;;23.85;56.88;101442.41;6314609;28;20247;-74
2021/06/28 08:10:38;;;;;;;5.07;4.85;;;;;;;23.66;58.76;101445.03;6313156;28;20370;-75
2021/06/28 08:13:45;;;;;;;5.28;4.93;;;;;;;23.78;57.35;101441.06;6306312;28;20226;-75
2021/06/28 08:16:49;;;;;;;5.70;5.35;;;;;;;23.79;58.05;101448.28;6313082;28;20206;-75
2021/06/28 08:19:55;;;;;;;5.22;4.75;;;;;;;23.81;57.36;101446.03;6313231;28;20502;-76
2021/06/28 08:22:59;;;;;;;6.40;4.45;;;;;;;23.82;56.60;101447.72;6313169;28;20303;-75
2021/06/28 08:26:03;;;;;;;4.53;4.32;;;;;;;23.97;56.01;101444.78;6312914;28;20222;-75
2021/06/28 08:29:08;;;;;;;4.78;4.45;;;;;;;23.87;57.22;101444.88;6314219;28;20183;-76
2021/06/28 08:32:13;;;;;;;5.55;5.10;;;;;;;23.85;56.81;101431.25;6313953;28;20211;-75
2021/06/28 08:35:19;;;;;;;5.30;5.10;;;;;;;23.88;57.71;101435.41;6313090;28;20479;-75
2021/06/28 08:38:23;;;;;;;5.10;4.80;;;;;;;24.06;56.40;101431.91;6312646;28;20191;-75
2021/06/28 08:41:28;;;;;;;4.63;4.53;;;;;;;24.16;56.20;101431.84;6312666;28;20381;-75
2021/06/28 08:44:33;;;;;;;5.28;4.97;;;;;;;24.29;56.91;101447.91;6313570;28;20238;-75
2021/06/28 08:47:37;;;;;;;6.50;5.88;;;;;;;24.40;55.80;101441.06;6313806;28;20183;-75
2021/06/28 08:50:42;;;;;;;5.50;5.00;;;;;;;24.51;55.22;101430.63;6312640;28;20510;-75
2021/06/28 08:53:52;;;;;;;6.03;5.47;;;;;;;24.53;56.49;101442.31;6313743;28;20222;-76
2021/06/28 08:56:59;;;;;;;7.47;5.80;;;;;;;24.51;56.47;101439.84;6312436;28;20205;-76
2021/06/28 09:00:06;;;;;;;6.65;6.00;;;;;;;24.45;56.90;101446.59;6313727;28;20183;-75
2021/06/28 09:03:14;;;;;;;6.00;5.53;;;;;;;24.28;55.94;101446.22;6311974;28;20367;-75
2021/06/28 09:06:25;;;;;;;5.32;5.00;;;;;;;24.32;56.62;101441.72;6312573;28;20190;-75
2021/06/28 09:09:36;;;;;;;5.63;5.32;;;;;;;24.01;55.85;101434.75;6311883;28;20246;-75
2021/06/28 09:12:50;;;;;;;6.15;5.40;;;;;;;23.79;56.05;101443.53;6311744;28;20371;-75
2021/06/28 09:15:54;;;;;;;6.70;5.60;;;;;;;23.94;56.93;101439.78;6311766;28;20271;-76
2021/06/28 09:19:01;;;;;;;5.93;5.25;;;;;;;24.00;57.40;101449.78;6312717;28;20250;-76
2021/06/28 09:22:07;;;;;;;6.22;5.70;;;;;;;23.98;57.65;101440.91;6312467;28;20231;-75
2021/06/28 09:25:30;;;;;;;6.57;5.95;;;;;;;23.98;58.68;101446.47;6313017;28;20211;-75
2021/06/28 09:28:38;;;;;;;9.57;5.90;;;;;;;23.99;58.20;101445.31;6311862;28;20529;-76
2021/06/28 09:31:44;;;;;;;5.28;5.07;;;;;;;24.08;57.12;101449.19;6304829;28;20230;-76
2021/06/28 09:34:51;;;;;;;5.90;5.60;;;;;;;23.97;56.79;101451.22;6312590;28;20251;-76
2021/06/28 09:37:57;;;;;;;6.28;5.88;;;;;;;23.78;58.38;101457.78;6312253;28;20229;-76
2021/06/28 09:41:30;;;;;;;8.48;5.70;;;;;;;23.86;58.96;101448.78;6312784;28;20190;-76
2021/06/28 09:44:38;;;;;;;6.20;5.75;;;;;;;23.94;58.91;101446.22;6289527;28;20265;-78
2021/06/28 09:47:43;;;;;;;5.97;5.57;;;;;;;23.99;57.43;101445.31;6312107;28;20454;-76
2021/06/28 09:50:47;;;;;;;6.13;5.72;;;;;;;23.89;58.91;101453.78;6312218;28;20498;-76
2021/06/28 09:54:20;;;;;;;7.13;6.32;;;;;;;23.99;58.29;101453.69;6313188;28;20194;-77
2021/06/28 09:57:24;;;;;;;6.72;6.15;;;;;;;24.00;57.82;101447.00;6313133;28;20184;-76
2021/06/28 10:00:28;;;;;;;6.03;5.53;;;;;;;23.96;57.43;101448.72;6312162;28;20187;-75
2021/06/28 10:03:37;;;;;;;6.65;6.03;;;;;;;23.94;57.84;101450.94;6312339;28;20187;-77
2021/06/28 10:06:41;;;;;;;6.75;6.10;;;;;;;23.98;57.44;101446.47;6311936;28;20207;-76
2021/06/28 10:09:47;;;;;;;6.43;6.03;;;;;;;23.99;56.73;101451.75;6311974;28;20395;-75
2021/06/28 10:13:15;;;;;;;6.20;5.90;;;;;;;23.99;58.41;101445.31;6312976;28;20184;-74
2021/06/28 10:16:21;;;;;;;6.15;5.82;;;;;;;23.87;57.34;101451.28;6286256;28;20198;-78
2021/06/28 10:19:26;;;;;;;6.20;5.82;;;;;;;23.86;57.26;101455.19;6312897;28;20187;-75
2021/06/28 10:22:30;;;;;;;6.07;5.78;;;;;;;24.05;57.31;101446.97;6312688;28;20231;-76
2021/06/28 10:25:39;;;;;;;6.88;6.30;;;;;;;23.98;57.61;101446.47;6311462;28;20369;-76
2021/06/28 10:28:44;;;;;;;6.13;5.80;;;;;;;23.93;57.14;101446.50;6294386;28;20199;-76
2021/06/28 10:31:48;;;;;;;7.72;6.07;;;;;;;23.93;57.71;101443.72;6312768;28;20216;-76
2021/06/28 10:34:54;;;;;;;6.03;5.68;;;;;;;23.97;57.91;101451.22;6312577;28;20219;-76
2021/06/28 10:38:03;;;;;;;6.78;6.25;;;;;;;23.92;57.18;101453.19;6311553;28;20238;-75
2021/06/28 10:41:08;;;;;;;13.52;6.20;;;;;;;23.94;57.43;101446.22;6312170;28;20246;-77
2021/06/28 10:44:14;;;;;;;7.13;6.25;;;;;;;24.00;57.57;101442.28;6312658;28;20184;-76
2021/06/28 10:47:19;;;;;;;6.50;6.10;;;;;;;24.15;57.55;101441.31;6310557;28;20230;-75
2021/06/28 10:50:23;;;;;;;6.53;6.00;;;;;;;24.00;57.66;101444.22;6316329;28;20209;-76
2021/06/28 10:54:19;;;;;;;6.60;5.88;;;;;;;24.00;57.31;101449.78;6316707;28;20184;-75
2021/06/28 10:57:39;;;;;;;6.22;5.63;;;;;;;24.19;57.80;101437.66;6316187;28;20191;-76
2021/06/28 11:00:53;;;;;;;5.95;5.65;;;;;;;24.12;55.61;101430.75;6315371;28;20246;-75
2021/06/28 11:04:05;;;;;;;6.93;5.43;;;;;;;24.25;56.23;101435.66;6316860;28;20187;-76
2021/06/28 11:07:19;;;;;;;6.22;5.82;;;;;;;24.40;56.78;101443.03;6315880;28;20215;-76
2021/06/28 11:10:38;;;;;;;6.63;6.05;;;;;;;24.45;56.38;101427.06;6315352;28;20445;-76
2021/06/28 11:13:54;;;;;;;6.30;5.90;;;;;;;24.49;55.94;101444.91;6316261;28;20184;-77
2021/06/28 11:17:05;;;;;;;6.63;6.18;;;;;;;24.51;56.05;101434.28;6315859;28;20219;-76
2021/06/28 11:20:26;;;;;;;6.03;5.68;;;;;;;24.49;56.49;101430.13;6315323;28;20346;-77
2021/06/28 11:23:31;;;;;;;5.95;5.65;;;;;;;24.45;55.19;101429.03;6315287;28;20525;-76
2021/06/28 11:26:36;;;;;;;6.50;6.10;;;;;;;24.51;55.91;101420.31;6315936;28;20208;-76
2021/06/28 11:30:00;;;;;;;6.45;5.97;;;;;;;24.59;57.42;101422.47;6315772;28;20199;-76
2021/06/28 11:33:08;;;;;;;6.10;5.70;;;;;;;24.58;54.98;101420.78;6315915;28;20251;-77
2021/06/28 11:36:34;;;;;;;6.10;5.75;;;;;;;24.51;55.39;101420.31;6314881;28;20355;-77
2021/06/28 11:39:54;;;;;;;6.32;5.47;;;;;;;24.59;56.31;101408.53;6314609;28;20538;-75
2021/06/28 11:43:04;;;;;;;6.07;5.63;;;;;;;24.72;55.77;101418.97;6314628;28;20184;-76
2021/06/28 11:46:12;;;;;;;5.95;5.60;;;;;;;24.77;54.40;101416.13;6315912;28;20212;-75
2021/06/28 11:49:24;;;;;;;6.10;5.32;;;;;;;24.83;54.34;101423.31;6315301;28;20192;-76
2021/06/28 11:52:29;;;;;;;5.72;5.32;;;;;;;24.92;53.44;101417.06;6314616;28;20192;-76
2021/06/28 11:55:36;;;;;;;5.93;5.40;;;;;;;24.93;53.70;101424.31;6313953;28;20423;-76
2021/06/28 11:58:40;;;;;;;5.72;5.32;;;;;;;25.10;53.47;101413.47;6313765;28;20422;-77
2021/06/28 12:01:50;;;;;;;5.57;5.13;;;;;;;25.18;54.00;101404.44;6307925;28;20183;-77
2021/06/28 12:05:00;;;;;;;6.85;4.97;;;;;;;25.15;52.85;101399.44;6314974;28;20230;-77
2021/06/28 12:08:06;;;;;;;5.43;5.15;;;;;;;25.33;52.88;101399.47;6313716;28;20246;-76
2021/06/28 12:11:11;;;;;;;5.82;5.28;;;;;;;25.24;52.54;101397.66;6313465;28;20188;-75
2021/06/28 12:14:32;;;;;;;6.18;4.65;;;;;;;25.35;51.92;101399.16;6314613;28;20224;-75
2021/06/28 12:17:38;;;;;;;5.82;4.47;;;;;;;25.53;51.57;101389.97;6313161;28;20274;-75
2021/06/28 12:20:43;;;;;;;5.38;4.88;;;;;;;25.57;52.30;101385.44;6313649;28;20184;-76
2021/06/28 12:24:00;;;;;;;5.10;4.80;;;;;;;25.62;51.28;101393.75;6313613;28;20184;-77
2021/06/28 12:27:07;;;;;;;4.85;4.63;;;;;;;25.58;50.12;101387.09;6314469;28;20327;-76
2021/06/28 12:30:14;;;;;;;4.95;4.63;;;;;;;25.66;50.42;101389.19;6312744;28;20479;-76
2021/06/28 12:33:20;;;;;;;4.88;4.65;;;;;;;25.68;50.35;101381.34;6314596;28;20184;-76
2021/06/28 12:36:24;;;;;;;6.18;4.90;;;;;;;25.61;49.27;101375.31;6313225;28;20434;-76
2021/06/28 12:39:30;;;;;;;4.93;4.72;;;;;;;25.67;50.56;101376.06;6311981;28;20512;-76
2021/06/28 12:42:39;;;;;;;5.95;4.85;;;;;;;25.67;50.87;101379.69;6313839;28;20206;-75
2021/06/28 12:45:46;;;;;;;4.80;4.40;;;;;;;25.76;51.08;101372.25;6313774;28;20246;-76
2021/06/28 12:48:51;;;;;;;5.10;4.80;;;;;;;25.69;50.31;101373.78;6312429;28;20359;-76
2021/06/28 12:52:24;;;;;;;4.75;4.45;;;;;;;25.53;49.37;101373.22;6313361;28;20215;-75
2021/06/28 12:55:30;;;;;;;7.38;4.78;;;;;;;25.77;50.71;101368.34;6313659;28;20226;-75
2021/06/28 12:58:43;;;;;;;4.78;4.57;;;;;;;25.89;49.11;101360.28;6313661;28;20190;-76
2021/06/28 13:01:47;;;;;;;4.80;4.50;;;;;;;25.94;49.37;101357.41;6313579;28;20247;-76
2021/06/28 13:05:04;;;;;;;4.70;4.38;;;;;;;25.96;48.80;101360.72;6312120;28;20412;-76
2021/06/28 13:08:15;;;;;;;6.90;4.32;;;;;;;26.00;49.38;101361.78;6311806;28;20407;-75
2021/06/28 13:11:19;;;;;;;5.63;5.25;;;;;;;25.99;49.70;101360.13;6312907;28;20247;-75
2021/06/28 13:14:26;;;;;;;24.40;5.45;;;;;;;25.97;49.19;101354.00;6312124;28;20381;-76
2021/06/28 13:17:30;;;;;;;4.53;4.40;;;;;;;26.11;49.34;101363.25;6313398;28;20270;-76
2021/06/28 13:20:38;;;;;;;4.63;4.32;;;;;;;26.14;47.87;101361.00;6312920;28;20184;-76
2021/06/28 13:23:48;;;;;;;4.68;4.38;;;;;;;26.27;48.03;101357.41;6313060;28;20184;-76
2021/06/28 13:26:59;;;;;;;4.43;4.22;;;;;;;26.20;47.41;101345.78;6311408;28;20513;-75
2021/06/28 13:30:18;;;;;;;4.53;4.20;;;;;;;26.22;47.11;101352.72;6311023;28;20378;-75
2021/06/28 13:33:22;;;;;;;4.32;4.07;;;;;;;26.33;47.67;101347.75;6311288;28;20183;-76
2021/06/28 13:36:27;;;;;;;4.40;4.05;;;;;;;26.35;47.75;101343.50;6312285;28;20187;-76
2021/06/28 13:39:36;;;;;;;4.95;4.60;;;;;;;26.54;47.98;101343.41;6312590;28;20191;-76
2021/06/28 13:42:42;;;;;;;4.53;4.07;;;;;;;26.67;47.73;101339.78;6311355;28;20184;-76
2021/06/28 13:45:46;;;;;;;4.47;4.20;;;;;;;26.61;47.03;101329.84;6312273;28;20188;-76
2021/06/28 13:48:50;;;;;;;4.78;4.05;;;;;;;26.95;46.34;101329.41;6311074;28;20286;-76
2021/06/28 13:52:00;;;;;;;4.32;4.13;;;;;;;27.52;44.95;101331.44;6311403;28;20206;-76
2021/06/28 13:55:04;;;;;;;4.85;4.30;;;;;;;28.83;42.41;101332.59;6311918;28;20183;-76
2021/06/28 13:58:11;;;;;;;4.47;4.28;;;;;;;29.20;41.20;101332.00;6312054;28;20333;-76
2021/06/28 14:01:16;;;;;;;5.72;4.35;;;;;;;28.88;42.22;101330.47;6311680;28;20215;-75
2021/06/28 14:04:20;;;;;;;4.63;4.22;;;;;;;29.30;40.78;101336.50;6311991;28;20183;-76
2021/06/28 14:07:25;;;;;;;4.72;4.43;;;;;;;29.79;39.64;101335.16;6311853;28;20210;-76
2021/06/28 14:10:30;;;;;;;4.38;4.18;;;;;;;30.79;38.74;101328.63;6312313;28;20221;-76
2021/06/28 14:13:34;;;;;;;4.60;4.05;;;;;;;31.45;37.24;101317.56;6310997;28;20474;-76
2021/06/28 14:16:38;;;;;;;4.25;4.05;;;;;;;31.14;37.44;101319.97;6311600;28;20543;-76
2021/06/28 14:19:42;;;;;;;4.22;3.90;;;;;;;30.46;38.66;101326.84;6310749;28;20183;-76
2021/06/28 14:22:49;;;;;;;5.53;4.07;;;;;;;29.85;40.18;101336.59;6311516;28;20227;-75
2021/06/28 14:25:54;;;;;;;3.97;3.70;;;;;;;29.39;39.61;101315.66;6316975;28;20221;-75
2021/06/28 14:29:01;;;;;;;4.32;3.92;;;;;;;29.26;40.03;101319.44;6316518;28;20242;-75